createdAt,value
2023-05-25T00:00:57.511Z,13.35
2023-05-25T00:03:31.404Z,9.10
2023-05-25T00:06:01.411Z,9.15
2023-05-25T00:08:29.053Z,8.52
2023-05-25T00:10:55.907Z,8.50
2023-05-25T00:13:22.632Z,9.57
2023-05-25T00:15:49.441Z,9.52
2023-05-25T00:18:16.205Z,10.75
2023-05-25T00:20:44.775Z,12.88
2023-05-25T00:23:11.616Z,10.82
2023-05-25T00:25:38.391Z,10.73
2023-05-25T00:28:05.179Z,7.03
2023-05-25T00:30:31.995Z,7.47
2023-05-25T00:32:59.797Z,11.52
2023-05-25T00:35:26.660Z,6.55
2023-05-25T00:37:53.389Z,9.93
2023-05-25T00:40:20.482Z,7.13
2023-05-25T00:42:47.532Z,9.10
2023-05-25T00:45:14.281Z,10.50
2023-05-25T00:47:41.540Z,11.05
2023-05-25T00:50:09.709Z,10.32
2023-05-25T00:52:36.734Z,9.00
2023-05-25T00:55:06.746Z,9.57
2023-05-25T00:57:37.931Z,9.35
2023-05-25T01:00:12.859Z,6.95
2023-05-25T01:02:42.620Z,9.00
2023-05-25T01:05:12.125Z,9.32
2023-05-25T01:07:41.414Z,9.15
2023-05-25T01:10:10.632Z,7.63
2023-05-25T01:12:40.458Z,7.57
2023-05-25T01:15:07.864Z,9.35
2023-05-25T01:17:38.141Z,6.93
2023-05-25T01:20:11.301Z,7.90
2023-05-25T01:22:55.501Z,11.90
2023-05-25T01:25:34.253Z,9.32
2023-05-25T01:28:13.080Z,7.57
2023-05-25T01:30:42.354Z,9.77
2023-05-25T01:33:10.944Z,10.38
2023-05-25T01:35:40.084Z,9.38
2023-05-25T01:38:08.382Z,8.93
2023-05-25T01:40:35.128Z,7.80
2023-05-25T01:43:01.881Z,10.00
2023-05-25T01:45:29.179Z,7.82
2023-05-25T01:48:02.646Z,8.68
2023-05-25T01:50:44.513Z,8.18
2023-05-25T01:53:16.092Z,7.95
2023-05-25T01:56:05.129Z,9.70
2023-05-25T01:58:40.669Z,11.05
2023-05-25T02:01:09.442Z,6.32
2023-05-25T02:03:41.632Z,8.05
2023-05-25T02:06:08.761Z,8.25
2023-05-25T02:08:35.590Z,7.70
2023-05-25T02:11:03.337Z,9.35
2023-05-25T02:13:30.099Z,6.90
2023-05-25T02:15:56.976Z,10.13
2023-05-25T02:18:23.866Z,9.85
2023-05-25T02:20:51.455Z,8.25
2023-05-25T02:23:19.012Z,5.93
2023-05-25T02:25:46.511Z,6.20
2023-05-25T02:28:14.513Z,9.80
2023-05-25T02:30:41.378Z,10.85
2023-05-25T02:33:08.119Z,8.25
2023-05-25T02:35:35.056Z,12.55
2023-05-25T02:38:01.916Z,6.97
2023-05-25T02:40:28.699Z,9.80
2023-05-25T02:42:55.404Z,9.07
2023-05-25T02:45:22.145Z,10.00
2023-05-25T02:47:48.921Z,10.00
2023-05-25T02:50:15.666Z,7.45
2023-05-25T02:52:42.531Z,11.02
2023-05-25T02:55:13.682Z,8.63
2023-05-25T02:57:40.985Z,9.63
2023-05-25T03:00:08.266Z,7.78
2023-05-25T03:02:35.115Z,8.40
2023-05-25T03:05:04.161Z,12.75
2023-05-25T03:07:31.692Z,9.20
2023-05-25T03:09:59.525Z,7.80
2023-05-25T03:12:26.323Z,10.20
2023-05-25T03:14:53.124Z,10.57
2023-05-25T03:17:19.942Z,12.95
2023-05-25T03:19:46.730Z,11.98
2023-05-25T03:22:13.439Z,10.68
2023-05-25T03:24:41.647Z,9.68
2023-05-25T03:27:08.981Z,11.02
2023-05-25T03:29:35.849Z,11.27
2023-05-25T03:32:02.850Z,11.10
2023-05-25T03:34:30.097Z,9.20
2023-05-25T03:36:56.934Z,16.08
2023-05-25T03:39:23.665Z,8.95
2023-05-25T03:41:51.225Z,12.65
2023-05-25T03:44:18.197Z,11.85
2023-05-25T03:46:45.072Z,8.10
2023-05-25T03:49:14.033Z,10.73
2023-05-25T03:51:42.406Z,12.88
2023-05-25T03:54:09.252Z,11.15
2023-05-25T03:56:36.250Z,10.05
2023-05-25T03:59:03.160Z,10.45
2023-05-25T04:01:30.246Z,12.30
2023-05-25T04:03:57.409Z,8.75
2023-05-25T04:06:25.568Z,10.20
2023-05-25T04:08:52.900Z,11.45
2023-05-25T04:11:21.001Z,8.77
2023-05-25T04:13:47.810Z,12.25
2023-05-25T04:16:14.800Z,13.10
2023-05-25T04:18:41.701Z,13.48
2023-05-25T04:21:08.508Z,8.88
2023-05-25T04:23:35.526Z,11.52
2023-05-25T04:26:03.411Z,15.32
2023-05-25T04:28:30.671Z,13.35
2023-05-25T04:30:57.635Z,10.60
2023-05-25T04:33:24.853Z,10.38
2023-05-25T04:35:51.712Z,13.30
2023-05-25T04:38:18.441Z,11.00
2023-05-25T04:40:46.451Z,12.77
2023-05-25T04:43:13.741Z,10.73
2023-05-25T04:45:40.670Z,15.15
2023-05-25T04:48:07.601Z,13.27
2023-05-25T04:50:34.488Z,10.48
2023-05-25T04:53:01.324Z,9.70
2023-05-25T04:55:28.096Z,13.38
2023-05-25T04:57:55.034Z,17.30
2023-05-25T05:00:22.099Z,20.63
2023-05-25T05:02:49.911Z,12.73
2023-05-25T05:05:17.195Z,14.07
2023-05-25T05:07:44.242Z,15.02
2023-05-25T05:10:11.210Z,12.13
2023-05-25T05:12:37.907Z,12.35
2023-05-25T05:15:05.032Z,11.18
2023-05-25T05:17:31.861Z,12.23
2023-05-25T05:19:58.614Z,15.43
2023-05-25T05:22:25.484Z,14.07
2023-05-25T05:24:52.221Z,14.15
2023-05-25T05:27:19.331Z,13.60
2023-05-25T05:29:46.110Z,13.52
2023-05-25T05:32:12.864Z,18.23
2023-05-25T05:34:39.567Z,14.48
2023-05-25T05:37:06.313Z,17.63
2023-05-25T05:39:33.072Z,16.08
2023-05-25T05:41:59.800Z,12.05
2023-05-25T05:44:29.027Z,14.65
2023-05-25T05:47:00.840Z,16.58
2023-05-25T05:49:29.159Z,13.07
2023-05-25T05:51:56.095Z,12.48
2023-05-25T05:54:22.978Z,14.45
2023-05-25T05:56:50.418Z,14.85
2023-05-25T05:59:17.223Z,13.05
2023-05-25T06:01:44.201Z,12.25
2023-05-25T06:04:20.578Z,13.07
2023-05-25T06:06:47.571Z,14.60
2023-05-25T06:09:14.461Z,16.23
2023-05-25T06:11:41.308Z,17.27
2023-05-25T06:14:08.127Z,12.15
2023-05-25T06:16:34.909Z,15.85
2023-05-25T06:19:01.858Z,12.82
2023-05-25T06:21:28.819Z,16.80
2023-05-25T06:23:57.782Z,14.02
2023-05-25T06:26:24.963Z,13.65
2023-05-25T06:28:51.737Z,13.95
2023-05-25T06:31:18.833Z,16.67
2023-05-25T06:33:46.059Z,13.82
2023-05-25T06:36:15.874Z,18.13
2023-05-25T06:38:43.109Z,19.08
2023-05-25T06:41:12.824Z,15.07
2023-05-25T06:43:39.662Z,17.35
2023-05-25T06:46:06.482Z,16.55
2023-05-25T06:48:33.277Z,16.33
2023-05-25T06:51:00.053Z,16.02
2023-05-25T06:53:26.773Z,16.92
2023-05-25T06:55:53.523Z,15.10
2023-05-25T06:58:20.289Z,13.65
2023-05-25T07:00:47.124Z,18.63
2023-05-25T07:03:13.996Z,15.95
2023-05-25T07:05:41.496Z,15.52
2023-05-25T07:08:08.376Z,20.52
2023-05-25T07:10:35.101Z,17.33
2023-05-25T07:13:01.796Z,16.42
2023-05-25T07:15:28.525Z,16.75
2023-05-25T07:17:57.190Z,15.10
2023-05-25T07:20:24.413Z,14.40
2023-05-25T07:22:53.312Z,13.23
2023-05-25T07:25:20.172Z,24.15
2023-05-25T07:27:50.437Z,18.77
2023-05-25T07:30:17.418Z,14.32
2023-05-25T07:32:44.247Z,20.50
2023-05-25T07:35:11.207Z,14.90
2023-05-25T07:37:38.153Z,12.70
2023-05-25T07:40:06.097Z,16.90
2023-05-25T07:42:34.493Z,17.25
2023-05-25T07:45:02.093Z,20.85
2023-05-25T07:47:29.188Z,16.17
2023-05-25T07:49:55.958Z,18.58
2023-05-25T07:52:22.776Z,13.85
2023-05-25T07:54:49.547Z,18.55
2023-05-25T07:57:16.534Z,14.38
2023-05-25T07:59:44.857Z,15.95
2023-05-25T08:02:11.658Z,14.73
2023-05-25T08:04:38.612Z,17.80
2023-05-25T08:07:05.512Z,16.02
2023-05-25T08:09:32.238Z,19.30
2023-05-25T08:12:14.956Z,17.48
2023-05-25T08:14:46.618Z,19.13
2023-05-25T08:17:13.531Z,16.05
2023-05-25T08:19:40.425Z,19.55
2023-05-25T08:22:07.130Z,18.08
2023-05-25T08:24:33.868Z,14.95
2023-05-25T08:27:01.943Z,15.93
2023-05-25T08:29:28.764Z,19.00
2023-05-25T08:31:55.612Z,20.50
2023-05-25T08:34:22.357Z,17.88
2023-05-25T08:36:49.100Z,19.80
2023-05-25T08:39:16.749Z,20.40
2023-05-25T08:41:44.735Z,20.65
2023-05-25T08:44:11.553Z,21.63
2023-05-25T08:46:38.479Z,18.48
2023-05-25T08:49:10.475Z,17.92
2023-05-25T08:51:39.354Z,21.27
2023-05-25T08:54:10.383Z,19.58
2023-05-25T08:56:51.360Z,18.20
2023-05-25T08:59:26.877Z,23.20
2023-05-25T09:02:02.020Z,17.10
2023-05-25T09:04:29.814Z,22.63
2023-05-25T09:07:09.520Z,20.40
2023-05-25T09:09:38.991Z,18.15
2023-05-25T09:12:06.636Z,18.17
2023-05-25T09:14:35.160Z,18.02
2023-05-25T09:17:02.089Z,17.10
2023-05-25T09:19:28.850Z,19.88
2023-05-25T09:22:03.070Z,19.27
2023-05-25T09:24:35.128Z,19.63
2023-05-25T09:27:03.593Z,16.60
2023-05-25T09:29:30.320Z,17.60
2023-05-25T09:31:57.334Z,18.50
2023-05-25T09:34:24.412Z,19.65
2023-05-25T09:36:51.306Z,17.45
2023-05-25T09:39:18.463Z,18.13
2023-05-25T09:41:45.288Z,18.25
2023-05-25T09:44:12.404Z,18.80
2023-05-25T09:46:39.685Z,19.23
2023-05-25T09:49:09.149Z,22.10
2023-05-25T09:51:37.242Z,26.65
2023-05-25T09:54:05.295Z,21.60
2023-05-25T09:56:33.543Z,19.02
2023-05-25T09:59:01.295Z,17.10
2023-05-25T10:01:28.919Z,17.42
2023-05-25T10:04:04.187Z,18.90
2023-05-25T10:06:33.350Z,17.85
2023-05-25T10:09:01.313Z,18.15
2023-05-25T10:11:29.338Z,20.75
2023-05-25T10:14:00.212Z,19.88
2023-05-25T10:16:29.435Z,19.10
2023-05-25T10:19:18.112Z,20.30
2023-05-25T10:21:51.904Z,17.80
2023-05-25T10:24:30.923Z,19.92
2023-05-25T10:27:07.783Z,19.45
2023-05-25T10:29:42.771Z,18.03
2023-05-25T10:32:09.976Z,21.30
2023-05-25T10:34:36.771Z,22.85
2023-05-25T10:37:04.751Z,18.67
2023-05-25T10:39:32.903Z,17.27
2023-05-25T10:42:02.113Z,18.92
2023-05-25T10:44:30.493Z,16.30
2023-05-25T10:46:59.825Z,21.35
2023-05-25T10:49:33.478Z,18.30
2023-05-25T10:52:01.762Z,21.33
2023-05-25T10:54:33.761Z,21.13
2023-05-25T10:57:11.435Z,19.58
2023-05-25T10:59:42.518Z,16.15
2023-05-25T11:02:09.778Z,22.17
2023-05-25T11:04:37.733Z,18.67
2023-05-25T11:07:08.519Z,18.55
2023-05-25T11:09:41.216Z,19.10
2023-05-25T11:12:08.592Z,21.05
2023-05-25T11:14:38.578Z,19.00
2023-05-25T11:17:14.617Z,20.85
2023-05-25T11:19:53.490Z,19.23
2023-05-25T11:22:37.643Z,21.52
2023-05-25T11:25:37.798Z,20.83
2023-05-25T11:28:05.978Z,21.08
2023-05-25T11:30:33.366Z,16.38
2023-05-25T11:33:04.209Z,19.20
2023-05-25T11:35:37.843Z,19.23
2023-05-25T11:38:06.800Z,18.77
2023-05-25T11:40:49.491Z,20.60
2023-05-25T11:43:17.264Z,21.50
2023-05-25T11:45:44.334Z,20.98
2023-05-25T11:48:14.702Z,21.17
2023-05-25T11:50:41.564Z,17.23
2023-05-25T11:53:13.669Z,21.83
2023-05-25T11:55:42.779Z,19.90
2023-05-25T11:58:09.533Z,22.85
2023-05-25T12:00:44.726Z,18.40
2023-05-25T12:03:34.670Z,21.13
2023-05-25T12:06:02.430Z,19.77
2023-05-25T12:08:36.425Z,19.55
2023-05-25T12:11:03.593Z,25.08
2023-05-25T12:13:31.492Z,20.25
2023-05-25T12:16:00.246Z,22.23
2023-05-25T12:18:28.902Z,18.63
2023-05-25T12:20:57.062Z,22.15
2023-05-25T12:23:24.096Z,20.05
2023-05-25T12:26:09.836Z,18.30
2023-05-25T12:28:36.579Z,18.77
2023-05-25T12:31:26.380Z,19.83
2023-05-25T12:34:07.176Z,21.75
2023-05-25T12:36:48.423Z,18.35
2023-05-25T12:39:17.382Z,19.17
2023-05-25T12:41:48.259Z,19.50
2023-05-25T12:44:18.584Z,18.65
2023-05-25T12:46:45.367Z,18.70
2023-05-25T12:49:27.854Z,18.98
2023-05-25T12:51:55.273Z,19.08
2023-05-25T12:54:43.707Z,18.42
2023-05-25T12:57:16.114Z,20.40
2023-05-25T12:59:44.698Z,19.60
2023-05-25T13:02:12.667Z,19.58
2023-05-25T13:04:41.956Z,19.10
2023-05-25T13:07:09.203Z,17.58
2023-05-25T13:09:36.841Z,18.88
2023-05-25T13:12:05.101Z,17.45
2023-05-25T13:14:31.936Z,18.05
2023-05-25T13:16:58.774Z,17.83
2023-05-25T13:19:26.874Z,17.60
2023-05-25T13:21:55.477Z,20.08
2023-05-25T13:24:22.628Z,17.88
2023-05-25T13:26:50.889Z,17.63
2023-05-25T13:29:18.352Z,17.83
2023-05-25T13:31:45.385Z,17.08
2023-05-25T13:34:12.297Z,17.52
2023-05-25T13:36:39.024Z,18.00
2023-05-25T13:39:05.772Z,18.55
2023-05-25T13:41:32.668Z,17.77
2023-05-25T13:43:59.669Z,18.10
2023-05-25T13:48:59.990Z,17.13
2023-05-25T13:51:26.884Z,14.27
2023-05-25T13:53:53.681Z,14.30
2023-05-25T13:56:20.443Z,16.45
2023-05-25T13:58:47.183Z,13.52
2023-05-25T14:01:13.997Z,14.07
2023-05-25T14:03:41.018Z,12.27
2023-05-25T14:06:08.943Z,13.38
2023-05-25T14:08:35.662Z,12.68
2023-05-25T14:11:03.014Z,15.52
2023-05-25T14:13:29.836Z,14.35
2023-05-25T14:15:57.122Z,15.30
2023-05-25T14:18:23.923Z,16.08
2023-05-25T14:20:50.751Z,15.73
2023-05-25T14:23:19.246Z,15.50
2023-05-25T14:25:47.156Z,13.98
2023-05-25T14:28:14.615Z,15.38
2023-05-25T14:30:41.577Z,14.80
2023-05-25T14:33:08.411Z,15.88
2023-05-25T14:35:35.339Z,15.25
2023-05-25T14:38:02.016Z,13.73
2023-05-25T14:40:28.708Z,15.93
2023-05-25T14:42:55.868Z,14.98
2023-05-25T14:45:22.781Z,15.55
2023-05-25T14:47:50.704Z,14.80
2023-05-25T14:50:20.315Z,15.00
2023-05-25T14:52:47.074Z,12.40
2023-05-25T14:55:13.810Z,14.38
2023-05-25T14:57:40.529Z,14.05
2023-05-25T15:00:07.880Z,13.55
2023-05-25T15:02:34.777Z,14.90
2023-05-25T15:05:01.586Z,15.23
2023-05-25T15:07:28.305Z,14.32
2023-05-25T15:09:55.023Z,13.57
2023-05-25T15:12:21.770Z,12.98
2023-05-25T15:14:48.531Z,11.88
2023-05-25T15:17:15.255Z,13.63
2023-05-25T15:19:41.998Z,12.93
2023-05-25T15:22:08.756Z,13.90
2023-05-25T15:24:35.507Z,13.43
2023-05-25T15:27:02.809Z,15.50
2023-05-25T15:29:29.624Z,13.73
2023-05-25T15:31:56.423Z,16.65
2023-05-25T15:34:23.190Z,13.30
2023-05-25T15:36:50.053Z,15.77
2023-05-25T15:39:16.782Z,14.63
2023-05-25T15:41:43.506Z,14.38
2023-05-25T15:44:12.674Z,13.85
2023-05-25T15:46:40.968Z,14.48
2023-05-25T15:49:11.471Z,15.27
2023-05-25T15:51:41.570Z,12.98
2023-05-25T15:54:11.064Z,14.60
2023-05-25T15:56:39.507Z,13.50
2023-05-25T15:59:06.411Z,14.90
2023-05-25T16:01:36.971Z,14.60
2023-05-25T16:04:04.938Z,12.63
2023-05-25T16:06:32.260Z,13.73
2023-05-25T16:08:59.072Z,13.75
2023-05-25T16:11:28.015Z,14.07
2023-05-25T16:13:54.896Z,13.38
2023-05-25T16:16:22.126Z,13.48
2023-05-25T16:18:48.918Z,13.02
2023-05-25T16:21:15.795Z,13.73
2023-05-25T16:23:42.593Z,14.13
2023-05-25T16:26:10.146Z,15.45
2023-05-25T16:28:37.520Z,17.20
2023-05-25T16:31:05.502Z,13.82
2023-05-25T16:33:33.191Z,15.15
2023-05-25T16:36:01.072Z,14.43
2023-05-25T16:38:28.491Z,14.20
2023-05-25T16:40:55.288Z,14.85
2023-05-25T16:43:25.041Z,13.95
2023-05-25T16:45:52.702Z,17.05
2023-05-25T16:48:21.606Z,13.38
2023-05-25T16:50:49.820Z,13.25
2023-05-25T16:53:16.516Z,14.95
2023-05-25T16:58:26.739Z,14.45
2023-05-25T17:00:53.446Z,13.75
2023-05-25T17:03:20.448Z,14.63
2023-05-25T17:05:47.234Z,13.75
2023-05-25T17:08:14.055Z,14.88
2023-05-25T17:10:41.892Z,15.45
2023-05-25T17:13:08.705Z,12.85
2023-05-25T17:15:35.452Z,19.00
2023-05-25T17:18:02.226Z,12.85
2023-05-25T17:20:29.003Z,15.68
2023-05-25T17:22:55.936Z,15.48
2023-05-25T17:25:22.968Z,12.75
2023-05-25T17:27:49.729Z,13.93
2023-05-25T17:30:16.673Z,16.33
2023-05-25T17:33:02.575Z,14.77
2023-05-25T17:35:29.491Z,14.18
2023-05-25T17:37:56.388Z,15.15
2023-05-25T17:40:23.279Z,14.65
2023-05-25T17:42:49.983Z,14.40
2023-05-25T17:45:17.172Z,13.68
2023-05-25T17:47:43.993Z,13.05
2023-05-25T17:50:10.956Z,13.90
2023-05-25T17:52:37.663Z,13.63
2023-05-25T17:55:05.791Z,13.05
2023-05-25T17:57:32.600Z,13.75
2023-05-25T17:59:59.410Z,14.20
2023-05-25T18:02:29.777Z,12.88
2023-05-25T18:04:56.957Z,12.80
2023-05-25T18:07:23.778Z,13.27
2023-05-25T18:09:50.618Z,12.13
2023-05-25T18:12:17.510Z,13.80
2023-05-25T18:14:44.197Z,13.73
2023-05-25T18:17:11.832Z,14.20
2023-05-25T18:19:38.759Z,13.88
2023-05-25T18:22:05.684Z,13.13
2023-05-25T18:24:32.392Z,12.60
2023-05-25T18:27:03.573Z,13.85
2023-05-25T18:29:30.937Z,12.80
2023-05-25T18:31:57.833Z,13.23
2023-05-25T18:34:24.576Z,13.23
2023-05-25T18:36:51.358Z,12.48
2023-05-25T18:39:18.060Z,13.52
2023-05-25T18:41:47.367Z,14.55
2023-05-25T18:44:14.133Z,13.80
2023-05-25T18:46:43.224Z,13.77
2023-05-25T18:49:10.885Z,19.40
2023-05-25T18:51:37.785Z,14.85
2023-05-25T18:54:04.522Z,15.38
2023-05-25T18:56:31.323Z,15.75
2023-05-25T18:58:58.158Z,13.80
2023-05-25T19:01:27.826Z,15.05
2023-05-25T19:03:56.775Z,14.75
2023-05-25T19:06:25.401Z,15.45
2023-05-25T19:08:52.167Z,14.02
2023-05-25T19:11:20.036Z,14.40
2023-05-25T19:13:46.906Z,13.13
2023-05-25T19:16:13.842Z,12.68
2023-05-25T19:18:40.548Z,13.75
2023-05-25T19:21:07.253Z,14.35
2023-05-25T19:23:35.124Z,14.02
2023-05-25T19:26:01.940Z,13.95
2023-05-25T19:28:28.661Z,14.13
2023-05-25T19:30:55.415Z,14.77
2023-05-25T19:33:22.133Z,14.73
2023-05-25T19:35:48.839Z,13.88
2023-05-25T19:38:15.977Z,13.90
2023-05-25T19:40:42.762Z,13.60
2023-05-25T19:43:09.956Z,14.68
2023-05-25T19:45:36.819Z,14.35
2023-05-25T19:48:04.047Z,15.23
2023-05-25T19:50:30.899Z,14.35
2023-05-25T19:53:04.752Z,14.57
2023-05-25T19:55:31.531Z,20.20
2023-05-25T19:57:58.254Z,20.52
2023-05-25T20:00:26.979Z,20.52
2023-05-25T20:02:54.401Z,25.98
2023-05-25T20:05:21.319Z,20.38
2023-05-25T20:07:48.096Z,19.52
2023-05-25T20:10:14.905Z,19.13
2023-05-25T20:12:41.734Z,19.15
2023-05-25T20:15:08.925Z,19.60
2023-05-25T20:17:35.889Z,20.85
2023-05-25T20:20:05.221Z,20.65
2023-05-25T20:22:33.180Z,21.00
2023-05-25T20:25:00.934Z,20.65
2023-05-25T20:27:28.089Z,20.25
2023-05-25T20:29:55.011Z,21.42
2023-05-25T20:32:21.892Z,21.35
2023-05-25T20:34:48.623Z,20.77
2023-05-25T20:37:15.555Z,19.02
2023-05-25T20:39:42.267Z,19.83
2023-05-25T20:42:10.255Z,20.25
2023-05-25T20:44:37.319Z,20.48
2023-05-25T20:47:04.544Z,21.17
2023-05-25T20:49:31.337Z,20.85
2023-05-25T20:51:58.096Z,20.85
2023-05-25T20:54:24.920Z,20.45
2023-05-25T20:56:51.668Z,21.02
2023-05-25T20:59:18.420Z,21.23
2023-05-25T21:01:45.240Z,20.13
2023-05-25T21:04:12.103Z,20.50
2023-05-25T21:06:38.911Z,26.80
2023-05-25T21:09:06.706Z,21.17
2023-05-25T21:11:33.456Z,23.05
2023-05-25T21:14:00.364Z,20.77
2023-05-25T21:16:27.263Z,21.77
2023-05-25T21:18:53.993Z,20.30
2023-05-25T21:21:20.826Z,22.30
2023-05-25T21:23:47.580Z,22.23
2023-05-25T21:26:14.316Z,21.83
2023-05-25T21:28:41.078Z,20.27
2023-05-25T21:31:07.893Z,22.35
2023-05-25T21:33:36.641Z,24.05
2023-05-25T21:36:03.950Z,23.15
2023-05-25T21:38:30.757Z,22.35
2023-05-25T21:40:58.712Z,23.27
2023-05-25T21:43:27.230Z,20.75
2023-05-25T21:45:54.033Z,23.20
2023-05-25T21:48:21.424Z,22.00
2023-05-25T21:50:51.510Z,21.77
2023-05-25T21:53:19.246Z,20.83
2023-05-25T21:55:47.154Z,20.90
2023-05-25T21:58:15.867Z,21.42
2023-05-25T22:00:42.633Z,21.60
2023-05-25T22:03:09.493Z,20.70
2023-05-25T22:05:36.313Z,20.83
2023-05-25T22:08:06.199Z,21.50
2023-05-25T22:10:33.047Z,21.65
2023-05-25T22:12:59.802Z,21.55
2023-05-25T22:15:26.564Z,22.38
2023-05-25T22:17:53.374Z,22.48
2023-05-25T22:20:20.289Z,20.52
2023-05-25T22:22:47.082Z,22.27
2023-05-25T22:25:13.897Z,21.67
2023-05-25T22:27:40.653Z,20.50
2023-05-25T22:30:08.017Z,21.75
2023-05-25T22:32:35.201Z,22.38
2023-05-25T22:35:02.305Z,23.95
2023-05-25T22:37:29.148Z,21.98
2023-05-25T22:39:55.931Z,21.33
2023-05-25T22:42:22.918Z,21.52
2023-05-25T22:44:51.192Z,21.63
2023-05-25T22:47:18.145Z,22.15
2023-05-25T22:49:45.022Z,22.00
2023-05-25T22:52:12.094Z,20.55
2023-05-25T22:54:39.732Z,19.77
2023-05-25T22:57:08.381Z,21.02
2023-05-25T22:59:35.294Z,20.08
2023-05-25T23:02:02.244Z,19.85
2023-05-25T23:04:28.994Z,19.75
2023-05-25T23:06:55.733Z,21.55
2023-05-25T23:09:22.460Z,18.60
2023-05-25T23:11:49.233Z,21.05
2023-05-25T23:14:16.060Z,19.58
2023-05-25T23:16:43.114Z,20.17
2023-05-25T23:19:09.947Z,21.23
2023-05-25T23:21:36.995Z,20.63
2023-05-25T23:24:03.883Z,20.40
2023-05-25T23:26:30.889Z,20.77
2023-05-25T23:28:57.680Z,21.25
2023-05-25T23:31:24.507Z,20.27
2023-05-25T23:33:51.386Z,21.38
2023-05-25T23:36:18.136Z,19.60
2023-05-25T23:38:45.796Z,19.38
2023-05-25T23:41:12.710Z,20.25
2023-05-25T23:43:39.455Z,21.25
2023-05-25T23:46:06.312Z,20.77
2023-05-25T23:48:33.035Z,20.52
2023-05-25T23:50:59.793Z,19.20
2023-05-25T23:53:26.505Z,18.92
2023-05-25T23:55:53.229Z,19.80
2023-05-25T23:58:19.999Z,20.42
